sensor_id;sensor_type;location;lat;lon;timestamp;P1;durP1;ratioP1;P2;durP2;ratioP2
54145;SDS011;65909;49.422;7.738;2023-07-24T00:01:07;2.40;;;1.43;;
54145;SDS011;65909;49.422;7.738;2023-07-24T00:03:32;4.77;;;1.87;;
54145;SDS011;65909;49.422;7.738;2023-07-24T00:05:58;4.57;;;2.17;;
54145;SDS011;65909;49.422;7.738;2023-07-24T00:08:24;4.07;;;2.00;;
54145;SDS011;65909;49.422;7.738;2023-07-24T00:10:49;2.72;;;1.70;;
54145;SDS011;65909;49.422;7.738;2023-07-24T00:13:14;3.77;;;1.63;;
54145;SDS011;65909;49.422;7.738;2023-07-24T00:15:39;2.43;;;1.60;;
54145;SDS011;65909;49.422;7.738;2023-07-24T00:18:05;3.50;;;1.60;;
54145;SDS011;65909;49.422;7.738;2023-07-24T00:20:30;3.83;;;1.90;;
54145;SDS011;65909;49.422;7.738;2023-07-24T00:22:55;3.27;;;2.00;;
54145;SDS011;65909;49.422;7.738;2023-07-24T00:25:20;3.80;;;1.97;;
54145;SDS011;65909;49.422;7.738;2023-07-24T00:27:45;2.67;;;1.80;;
54145;SDS011;65909;49.422;7.738;2023-07-24T00:30:11;3.00;;;1.80;;
54145;SDS011;65909;49.422;7.738;2023-07-24T00:32:36;3.30;;;1.90;;
54145;SDS011;65909;49.422;7.738;2023-07-24T00:35:01;3.00;;;1.45;;
54145;SDS011;65909;49.422;7.738;2023-07-24T00:37:26;4.40;;;1.80;;
54145;SDS011;65909;49.422;7.738;2023-07-24T00:39:52;5.07;;;1.93;;
54145;SDS011;65909;49.422;7.738;2023-07-24T00:42:17;3.13;;;1.67;;
54145;SDS011;65909;49.422;7.738;2023-07-24T00:44:42;4.13;;;2.20;;
54145;SDS011;65909;49.422;7.738;2023-07-24T00:47:07;2.77;;;1.77;;
54145;SDS011;65909;49.422;7.738;2023-07-24T00:49:33;4.53;;;1.83;;
54145;SDS011;65909;49.422;7.738;2023-07-24T00:51:58;3.28;;;1.90;;
54145;SDS011;65909;49.422;7.738;2023-07-24T00:54:23;2.70;;;1.58;;
54145;SDS011;65909;49.422;7.738;2023-07-24T00:56:49;5.30;;;2.03;;
54145;SDS011;65909;49.422;7.738;2023-07-24T00:59:15;2.83;;;1.80;;
54145;SDS011;65909;49.422;7.738;2023-07-24T01:01:40;2.88;;;1.70;;
54145;SDS011;65909;49.422;7.738;2023-07-24T01:04:06;3.47;;;2.10;;
54145;SDS011;65909;49.422;7.738;2023-07-24T01:06:32;3.15;;;2.13;;
54145;SDS011;65909;49.422;7.738;2023-07-24T01:08:57;4.70;;;2.00;;
54145;SDS011;65909;49.422;7.738;2023-07-24T01:11:28;6.97;;;1.90;;
54145;SDS011;65909;49.422;7.738;2023-07-24T01:14:01;4.00;;;1.83;;
54145;SDS011;65909;49.422;7.738;2023-07-24T01:16:31;2.85;;;1.90;;
54145;SDS011;65909;49.422;7.738;2023-07-24T01:18:58;3.50;;;2.00;;
54145;SDS011;65909;49.422;7.738;2023-07-24T01:21:29;3.90;;;2.00;;
54145;SDS011;65909;49.422;7.738;2023-07-24T01:24:33;12.65;;;2.13;;
54145;SDS011;65909;49.422;7.738;2023-07-24T01:26:49;5.13;;;1.83;;
54145;SDS011;65909;49.422;7.738;2023-07-24T01:29:14;4.40;;;2.00;;
54145;SDS011;65909;49.422;7.738;2023-07-24T01:31:40;2.93;;;1.77;;
54145;SDS011;65909;49.422;7.738;2023-07-24T01:34:05;4.33;;;2.10;;
54145;SDS011;65909;49.422;7.738;2023-07-24T01:36:30;3.67;;;2.00;;
54145;SDS011;65909;49.422;7.738;2023-07-24T01:38:55;5.93;;;2.27;;
54145;SDS011;65909;49.422;7.738;2023-07-24T01:41:21;4.78;;;2.17;;
54145;SDS011;65909;49.422;7.738;2023-07-24T01:43:46;3.50;;;1.60;;
54145;SDS011;65909;49.422;7.738;2023-07-24T01:46:11;3.47;;;1.75;;
54145;SDS011;65909;49.422;7.738;2023-07-24T01:48:37;3.33;;;1.93;;
54145;SDS011;65909;49.422;7.738;2023-07-24T01:51:02;7.10;;;1.60;;
54145;SDS011;65909;49.422;7.738;2023-07-24T01:53:27;5.07;;;1.83;;
54145;SDS011;65909;49.422;7.738;2023-07-24T01:55:52;4.17;;;1.90;;
54145;SDS011;65909;49.422;7.738;2023-07-24T01:58:17;4.77;;;2.30;;
54145;SDS011;65909;49.422;7.738;2023-07-24T02:00:43;4.03;;;1.90;;
54145;SDS011;65909;49.422;7.738;2023-07-24T02:03:08;6.90;;;2.10;;
54145;SDS011;65909;49.422;7.738;2023-07-24T02:05:33;2.50;;;1.73;;
54145;SDS011;65909;49.422;7.738;2023-07-24T02:07:59;3.90;;;2.20;;
54145;SDS011;65909;49.422;7.738;2023-07-24T02:10:24;4.10;;;1.77;;
54145;SDS011;65909;49.422;7.738;2023-07-24T02:12:49;4.20;;;2.33;;
54145;SDS011;65909;49.422;7.738;2023-07-24T02:15:14;4.00;;;2.00;;
54145;SDS011;65909;49.422;7.738;2023-07-24T02:17:40;5.70;;;2.20;;
54145;SDS011;65909;49.422;7.738;2023-07-24T02:20:07;3.10;;;1.98;;
54145;SDS011;65909;49.422;7.738;2023-07-24T02:22:32;3.75;;;2.25;;
54145;SDS011;65909;49.422;7.738;2023-07-24T02:24:57;5.10;;;1.90;;
54145;SDS011;65909;49.422;7.738;2023-07-24T02:27:29;2.83;;;2.00;;
54145;SDS011;65909;49.422;7.738;2023-07-24T02:29:56;3.97;;;2.05;;
54145;SDS011;65909;49.422;7.738;2023-07-24T02:32:21;4.68;;;2.17;;
54145;SDS011;65909;49.422;7.738;2023-07-24T02:34:48;4.75;;;2.05;;
54145;SDS011;65909;49.422;7.738;2023-07-24T02:37:13;3.80;;;2.22;;
54145;SDS011;65909;49.422;7.738;2023-07-24T02:39:38;3.77;;;1.90;;
54145;SDS011;65909;49.422;7.738;2023-07-24T02:42:06;3.07;;;1.87;;
54145;SDS011;65909;49.422;7.738;2023-07-24T02:44:32;4.82;;;2.45;;
54145;SDS011;65909;49.422;7.738;2023-07-24T02:46:57;4.60;;;1.80;;
54145;SDS011;65909;49.422;7.738;2023-07-24T02:49:22;4.83;;;1.77;;
54145;SDS011;65909;49.422;7.738;2023-07-24T02:51:47;4.17;;;2.57;;
54145;SDS011;65909;49.422;7.738;2023-07-24T02:54:15;3.53;;;2.10;;
54145;SDS011;65909;49.422;7.738;2023-07-24T02:56:40;3.33;;;2.40;;
54145;SDS011;65909;49.422;7.738;2023-07-24T02:59:05;3.37;;;1.93;;
54145;SDS011;65909;49.422;7.738;2023-07-24T03:01:30;4.30;;;2.00;;
54145;SDS011;65909;49.422;7.738;2023-07-24T03:03:55;4.63;;;2.00;;
54145;SDS011;65909;49.422;7.738;2023-07-24T03:06:20;4.53;;;2.33;;
54145;SDS011;65909;49.422;7.738;2023-07-24T03:08:46;2.67;;;1.90;;
54145;SDS011;65909;49.422;7.738;2023-07-24T03:11:11;3.93;;;2.17;;
54145;SDS011;65909;49.422;7.738;2023-07-24T03:13:36;6.77;;;2.20;;
54145;SDS011;65909;49.422;7.738;2023-07-24T03:16:01;10.40;;;2.27;;
54145;SDS011;65909;49.422;7.738;2023-07-24T03:18:27;4.15;;;2.03;;
54145;SDS011;65909;49.422;7.738;2023-07-24T03:20:52;3.13;;;1.87;;
54145;SDS011;65909;49.422;7.738;2023-07-24T03:23:17;2.40;;;1.77;;
54145;SDS011;65909;49.422;7.738;2023-07-24T03:25:42;4.57;;;2.53;;
54145;SDS011;65909;49.422;7.738;2023-07-24T03:28:08;3.10;;;2.00;;
54145;SDS011;65909;49.422;7.738;2023-07-24T03:30:33;3.33;;;1.93;;
54145;SDS011;65909;49.422;7.738;2023-07-24T03:32:58;4.57;;;2.57;;
54145;SDS011;65909;49.422;7.738;2023-07-24T03:35:23;4.45;;;2.25;;
54145;SDS011;65909;49.422;7.738;2023-07-24T03:37:48;10.10;;;1.77;;
54145;SDS011;65909;49.422;7.738;2023-07-24T03:40:14;4.10;;;1.93;;
54145;SDS011;65909;49.422;7.738;2023-07-24T03:42:40;3.63;;;2.30;;
54145;SDS011;65909;49.422;7.738;2023-07-24T03:45:06;4.30;;;1.97;;
54145;SDS011;65909;49.422;7.738;2023-07-24T03:47:31;5.07;;;2.28;;
54145;SDS011;65909;49.422;7.738;2023-07-24T03:49:56;3.80;;;2.10;;
54145;SDS011;65909;49.422;7.738;2023-07-24T03:52:21;3.00;;;2.10;;
54145;SDS011;65909;49.422;7.738;2023-07-24T03:54:46;4.40;;;2.10;;
54145;SDS011;65909;49.422;7.738;2023-07-24T03:57:12;4.17;;;2.57;;
54145;SDS011;65909;49.422;7.738;2023-07-24T03:59:37;5.28;;;2.05;;
54145;SDS011;65909;49.422;7.738;2023-07-24T04:02:02;4.77;;;2.30;;
54145;SDS011;65909;49.422;7.738;2023-07-24T04:04:28;4.13;;;2.47;;
54145;SDS011;65909;49.422;7.738;2023-07-24T04:06:53;3.53;;;2.40;;
54145;SDS011;65909;49.422;7.738;2023-07-24T04:09:18;7.53;;;2.67;;
54145;SDS011;65909;49.422;7.738;2023-07-24T04:11:43;5.30;;;2.60;;
54145;SDS011;65909;49.422;7.738;2023-07-24T04:14:09;3.63;;;2.40;;
54145;SDS011;65909;49.422;7.738;2023-07-24T04:16:34;5.50;;;2.47;;
54145;SDS011;65909;49.422;7.738;2023-07-24T04:18:59;3.77;;;2.07;;
54145;SDS011;65909;49.422;7.738;2023-07-24T04:21:24;4.57;;;2.40;;
54145;SDS011;65909;49.422;7.738;2023-07-24T04:23:49;5.43;;;2.43;;
54145;SDS011;65909;49.422;7.738;2023-07-24T04:26:15;4.73;;;2.13;;
54145;SDS011;65909;49.422;7.738;2023-07-24T04:28:40;4.70;;;2.37;;
54145;SDS011;65909;49.422;7.738;2023-07-24T04:31:05;6.30;;;2.70;;
54145;SDS011;65909;49.422;7.738;2023-07-24T04:33:30;5.00;;;2.73;;
54145;SDS011;65909;49.422;7.738;2023-07-24T04:35:55;3.63;;;2.37;;
54145;SDS011;65909;49.422;7.738;2023-07-24T04:38:21;3.53;;;2.20;;
54145;SDS011;65909;49.422;7.738;2023-07-24T04:40:46;5.63;;;2.70;;
54145;SDS011;65909;49.422;7.738;2023-07-24T04:43:11;5.03;;;2.77;;
54145;SDS011;65909;49.422;7.738;2023-07-24T04:45:36;3.50;;;2.37;;
54145;SDS011;65909;49.422;7.738;2023-07-24T04:48:01;5.80;;;3.07;;
54145;SDS011;65909;49.422;7.738;2023-07-24T04:50:27;5.67;;;2.93;;
54145;SDS011;65909;49.422;7.738;2023-07-24T04:52:52;4.67;;;2.97;;
54145;SDS011;65909;49.422;7.738;2023-07-24T04:55:17;8.13;;;2.67;;
54145;SDS011;65909;49.422;7.738;2023-07-24T04:57:42;4.27;;;2.60;;
54145;SDS011;65909;49.422;7.738;2023-07-24T05:00:07;8.67;;;3.20;;
54145;SDS011;65909;49.422;7.738;2023-07-24T05:02:33;5.38;;;2.88;;
54145;SDS011;65909;49.422;7.738;2023-07-24T05:04:58;5.47;;;3.20;;
54145;SDS011;65909;49.422;7.738;2023-07-24T05:07:23;4.97;;;2.77;;
54145;SDS011;65909;49.422;7.738;2023-07-24T05:09:48;5.67;;;3.33;;
54145;SDS011;65909;49.422;7.738;2023-07-24T05:12:13;4.20;;;3.00;;
54145;SDS011;65909;49.422;7.738;2023-07-24T05:14:38;4.40;;;2.87;;
54145;SDS011;65909;49.422;7.738;2023-07-24T05:17:04;5.40;;;3.37;;
54145;SDS011;65909;49.422;7.738;2023-07-24T05:19:29;5.70;;;3.20;;
54145;SDS011;65909;49.422;7.738;2023-07-24T05:21:57;5.40;;;2.97;;
54145;SDS011;65909;49.422;7.738;2023-07-24T05:24:22;5.93;;;2.95;;
54145;SDS011;65909;49.422;7.738;2023-07-24T05:26:47;6.40;;;3.20;;
54145;SDS011;65909;49.422;7.738;2023-07-24T05:29:12;6.13;;;3.63;;
54145;SDS011;65909;49.422;7.738;2023-07-24T05:31:38;5.13;;;3.07;;
54145;SDS011;65909;49.422;7.738;2023-07-24T05:34:03;9.87;;;2.80;;
54145;SDS011;65909;49.422;7.738;2023-07-24T05:36:28;4.32;;;2.65;;
54145;SDS011;65909;49.422;7.738;2023-07-24T05:38:54;5.57;;;2.80;;
54145;SDS011;65909;49.422;7.738;2023-07-24T05:41:19;4.83;;;2.97;;
54145;SDS011;65909;49.422;7.738;2023-07-24T05:43:44;5.43;;;3.13;;
54145;SDS011;65909;49.422;7.738;2023-07-24T05:46:09;5.40;;;3.10;;
54145;SDS011;65909;49.422;7.738;2023-07-24T05:48:34;6.90;;;3.47;;
54145;SDS011;65909;49.422;7.738;2023-07-24T05:50:59;6.53;;;2.87;;
54145;SDS011;65909;49.422;7.738;2023-07-24T05:53:25;4.97;;;3.03;;
54145;SDS011;65909;49.422;7.738;2023-07-24T05:55:57;4.90;;;3.07;;
54145;SDS011;65909;49.422;7.738;2023-07-24T05:58:22;5.85;;;3.30;;
54145;SDS011;65909;49.422;7.738;2023-07-24T06:00:47;3.87;;;3.03;;
54145;SDS011;65909;49.422;7.738;2023-07-24T06:03:13;5.57;;;3.20;;
54145;SDS011;65909;49.422;7.738;2023-07-24T06:05:38;5.53;;;3.37;;
54145;SDS011;65909;49.422;7.738;2023-07-24T06:08:03;7.00;;;3.07;;
54145;SDS011;65909;49.422;7.738;2023-07-24T06:10:28;5.38;;;3.20;;
54145;SDS011;65909;49.422;7.738;2023-07-24T06:12:53;4.47;;;2.60;;
54145;SDS011;65909;49.422;7.738;2023-07-24T06:15:19;5.20;;;2.90;;
54145;SDS011;65909;49.422;7.738;2023-07-24T06:17:44;4.97;;;2.80;;
54145;SDS011;65909;49.422;7.738;2023-07-24T06:20:09;5.27;;;3.30;;
54145;SDS011;65909;49.422;7.738;2023-07-24T06:22:34;5.30;;;2.70;;
54145;SDS011;65909;49.422;7.738;2023-07-24T06:24:59;7.00;;;4.27;;
54145;SDS011;65909;49.422;7.738;2023-07-24T06:27:25;6.83;;;2.87;;
54145;SDS011;65909;49.422;7.738;2023-07-24T06:29:50;5.60;;;3.20;;
54145;SDS011;65909;49.422;7.738;2023-07-24T06:32:15;6.20;;;2.73;;
54145;SDS011;65909;49.422;7.738;2023-07-24T06:34:40;6.43;;;2.90;;
54145;SDS011;65909;49.422;7.738;2023-07-24T06:37:05;6.27;;;3.43;;
54145;SDS011;65909;49.422;7.738;2023-07-24T06:39:31;6.47;;;3.47;;
54145;SDS011;65909;49.422;7.738;2023-07-24T06:41:58;9.75;;;3.40;;
54145;SDS011;65909;49.422;7.738;2023-07-24T06:44:23;6.63;;;3.00;;
54145;SDS011;65909;49.422;7.738;2023-07-24T06:46:48;5.80;;;3.20;;
54145;SDS011;65909;49.422;7.738;2023-07-24T06:49:13;5.13;;;3.23;;
54145;SDS011;65909;49.422;7.738;2023-07-24T06:51:39;7.03;;;3.47;;
54145;SDS011;65909;49.422;7.738;2023-07-24T06:54:04;8.02;;;4.22;;
54145;SDS011;65909;49.422;7.738;2023-07-24T06:56:30;8.18;;;4.28;;
54145;SDS011;65909;49.422;7.738;2023-07-24T06:58:55;10.23;;;4.90;;
54145;SDS011;65909;49.422;7.738;2023-07-24T07:01:20;8.43;;;4.13;;
54145;SDS011;65909;49.422;7.738;2023-07-24T07:03:46;7.80;;;4.32;;
54145;SDS011;65909;49.422;7.738;2023-07-24T07:06:12;8.33;;;3.93;;
54145;SDS011;65909;49.422;7.738;2023-07-24T07:08:37;7.57;;;4.03;;
54145;SDS011;65909;49.422;7.738;2023-07-24T07:11:02;8.52;;;4.45;;
54145;SDS011;65909;49.422;7.738;2023-07-24T07:13:28;9.15;;;4.40;;
54145;SDS011;65909;49.422;7.738;2023-07-24T07:15:53;7.28;;;4.30;;
54145;SDS011;65909;49.422;7.738;2023-07-24T07:18:18;6.77;;;3.60;;
54145;SDS011;65909;49.422;7.738;2023-07-24T07:20:50;11.10;;;4.17;;
54145;SDS011;65909;49.422;7.738;2023-07-24T07:23:16;6.72;;;3.92;;
54145;SDS011;65909;49.422;7.738;2023-07-24T07:25:41;6.82;;;3.50;;
54145;SDS011;65909;49.422;7.738;2023-07-24T07:28:08;7.40;;;3.80;;
54145;SDS011;65909;49.422;7.738;2023-07-24T07:30:34;8.02;;;4.15;;
54145;SDS011;65909;49.422;7.738;2023-07-24T07:32:59;5.80;;;3.60;;
54145;SDS011;65909;49.422;7.738;2023-07-24T07:35:24;5.93;;;3.37;;
54145;SDS011;65909;49.422;7.738;2023-07-24T07:37:49;6.77;;;3.00;;
54145;SDS011;65909;49.422;7.738;2023-07-24T07:40:14;7.13;;;3.30;;
54145;SDS011;65909;49.422;7.738;2023-07-24T07:42:40;5.37;;;2.77;;
54145;SDS011;65909;49.422;7.738;2023-07-24T07:45:06;4.38;;;2.55;;
54145;SDS011;65909;49.422;7.738;2023-07-24T07:47:31;5.93;;;2.75;;
54145;SDS011;65909;49.422;7.738;2023-07-24T07:49:56;4.90;;;2.67;;
54145;SDS011;65909;49.422;7.738;2023-07-24T07:52:22;5.60;;;2.63;;
54145;SDS011;65909;49.422;7.738;2023-07-24T07:54:53;5.35;;;2.58;;
54145;SDS011;65909;49.422;7.738;2023-07-24T07:57:18;4.75;;;2.85;;
54145;SDS011;65909;49.422;7.738;2023-07-24T07:59:43;3.53;;;2.33;;
54145;SDS011;65909;49.422;7.738;2023-07-24T08:02:08;5.03;;;2.23;;
54145;SDS011;65909;49.422;7.738;2023-07-24T08:04:34;4.67;;;2.60;;
54145;SDS011;65909;49.422;7.738;2023-07-24T08:06:59;3.73;;;2.50;;
54145;SDS011;65909;49.422;7.738;2023-07-24T08:09:24;5.68;;;2.90;;
54145;SDS011;65909;49.422;7.738;2023-07-24T08:11:50;4.67;;;2.50;;
54145;SDS011;65909;49.422;7.738;2023-07-24T08:14:16;5.15;;;2.92;;
54145;SDS011;65909;49.422;7.738;2023-07-24T08:16:41;4.63;;;2.17;;
54145;SDS011;65909;49.422;7.738;2023-07-24T08:19:06;5.90;;;2.30;;
54145;SDS011;65909;49.422;7.738;2023-07-24T08:21:31;5.17;;;2.53;;
54145;SDS011;65909;49.422;7.738;2023-07-24T08:23:57;4.95;;;2.58;;
54145;SDS011;65909;49.422;7.738;2023-07-24T08:26:23;5.50;;;2.40;;
54145;SDS011;65909;49.422;7.738;2023-07-24T08:28:50;4.05;;;2.63;;
54145;SDS011;65909;49.422;7.738;2023-07-24T08:31:16;4.27;;;2.40;;
54145;SDS011;65909;49.422;7.738;2023-07-24T08:33:41;4.17;;;2.50;;
54145;SDS011;65909;49.422;7.738;2023-07-24T08:36:07;3.80;;;2.40;;
54145;SDS011;65909;49.422;7.738;2023-07-24T08:38:32;4.13;;;2.55;;
54145;SDS011;65909;49.422;7.738;2023-07-24T08:41:01;6.07;;;2.63;;
54145;SDS011;65909;49.422;7.738;2023-07-24T08:43:27;3.55;;;2.70;;
54145;SDS011;65909;49.422;7.738;2023-07-24T08:45:53;4.03;;;2.38;;
54145;SDS011;65909;49.422;7.738;2023-07-24T08:48:19;4.38;;;2.50;;
54145;SDS011;65909;49.422;7.738;2023-07-24T08:50:45;7.68;;;2.85;;
54145;SDS011;65909;49.422;7.738;2023-07-24T08:53:10;4.78;;;2.05;;
54145;SDS011;65909;49.422;7.738;2023-07-24T08:55:35;3.60;;;2.30;;
54145;SDS011;65909;49.422;7.738;2023-07-24T08:58:00;4.47;;;2.00;;
54145;SDS011;65909;49.422;7.738;2023-07-24T09:00:26;5.70;;;2.03;;
54145;SDS011;65909;49.422;7.738;2023-07-24T09:02:52;3.63;;;2.45;;
54145;SDS011;65909;49.422;7.738;2023-07-24T09:05:17;4.60;;;2.30;;
54145;SDS011;65909;49.422;7.738;2023-07-24T09:07:42;4.15;;;2.30;;
54145;SDS011;65909;49.422;7.738;2023-07-24T09:10:08;3.50;;;2.05;;
54145;SDS011;65909;49.422;7.738;2023-07-24T09:12:34;5.93;;;2.30;;
54145;SDS011;65909;49.422;7.738;2023-07-24T09:15:04;3.33;;;2.17;;
54145;SDS011;65909;49.422;7.738;2023-07-24T09:17:30;5.38;;;2.35;;
54145;SDS011;65909;49.422;7.738;2023-07-24T09:19:56;4.17;;;2.07;;
54145;SDS011;65909;49.422;7.738;2023-07-24T09:22:21;3.83;;;1.80;;
54145;SDS011;65909;49.422;7.738;2023-07-24T09:24:50;5.43;;;2.23;;
54145;SDS011;65909;49.422;7.738;2023-07-24T09:27:16;4.10;;;1.90;;
54145;SDS011;65909;49.422;7.738;2023-07-24T09:29:42;4.65;;;2.35;;
54145;SDS011;65909;49.422;7.738;2023-07-24T09:32:07;3.17;;;1.90;;
54145;SDS011;65909;49.422;7.738;2023-07-24T09:34:33;5.80;;;1.98;;
54145;SDS011;65909;49.422;7.738;2023-07-24T09:36:58;3.60;;;1.97;;
54145;SDS011;65909;49.422;7.738;2023-07-24T09:39:24;3.17;;;2.30;;
54145;SDS011;65909;49.422;7.738;2023-07-24T09:41:49;4.30;;;2.05;;
54145;SDS011;65909;49.422;7.738;2023-07-24T09:44:15;3.78;;;2.28;;
54145;SDS011;65909;49.422;7.738;2023-07-24T09:46:40;4.43;;;2.33;;
54145;SDS011;65909;49.422;7.738;2023-07-24T09:49:06;3.05;;;2.10;;
54145;SDS011;65909;49.422;7.738;2023-07-24T09:51:31;6.17;;;2.53;;
54145;SDS011;65909;49.422;7.738;2023-07-24T09:54:06;4.20;;;2.30;;
54145;SDS011;65909;49.422;7.738;2023-07-24T09:56:34;3.70;;;2.20;;
54145;SDS011;65909;49.422;7.738;2023-07-24T09:58:59;3.50;;;2.08;;
54145;SDS011;65909;49.422;7.738;2023-07-24T10:01:25;5.38;;;2.25;;
54145;SDS011;65909;49.422;7.738;2023-07-24T10:03:51;3.72;;;1.98;;
54145;SDS011;65909;49.422;7.738;2023-07-24T10:06:16;4.95;;;2.10;;
54145;SDS011;65909;49.422;7.738;2023-07-24T10:08:42;4.13;;;2.15;;
54145;SDS011;65909;49.422;7.738;2023-07-24T10:11:08;4.00;;;2.20;;
54145;SDS011;65909;49.422;7.738;2023-07-24T10:13:33;3.60;;;2.15;;
54145;SDS011;65909;49.422;7.738;2023-07-24T10:16:01;4.18;;;2.60;;
54145;SDS011;65909;49.422;7.738;2023-07-24T10:18:28;4.30;;;2.35;;
54145;SDS011;65909;49.422;7.738;2023-07-24T10:21:01;3.25;;;2.30;;
54145;SDS011;65909;49.422;7.738;2023-07-24T10:23:27;4.85;;;2.75;;
54145;SDS011;65909;49.422;7.738;2023-07-24T10:25:52;4.83;;;2.23;;
54145;SDS011;65909;49.422;7.738;2023-07-24T10:28:17;3.65;;;2.55;;
54145;SDS011;65909;49.422;7.738;2023-07-24T10:30:43;9.55;;;2.90;;
54145;SDS011;65909;49.422;7.738;2023-07-24T10:33:18;3.13;;;2.20;;
54145;SDS011;65909;49.422;7.738;2023-07-24T10:35:45;4.78;;;2.50;;
54145;SDS011;65909;49.422;7.738;2023-07-24T10:38:11;5.05;;;2.60;;
54145;SDS011;65909;49.422;7.738;2023-07-24T10:40:37;3.75;;;2.30;;
54145;SDS011;65909;49.422;7.738;2023-07-24T10:43:09;3.93;;;2.53;;
54145;SDS011;65909;49.422;7.738;2023-07-24T10:45:53;4.82;;;2.92;;
54145;SDS011;65909;49.422;7.738;2023-07-24T10:48:19;10.50;;;4.43;;
54145;SDS011;65909;49.422;7.738;2023-07-24T10:50:45;4.55;;;2.70;;
54145;SDS011;65909;49.422;7.738;2023-07-24T10:53:11;4.25;;;2.63;;
54145;SDS011;65909;49.422;7.738;2023-07-24T10:55:36;5.10;;;3.50;;
54145;SDS011;65909;49.422;7.738;2023-07-24T10:58:02;5.80;;;2.38;;
54145;SDS011;65909;49.422;7.738;2023-07-24T11:00:27;4.47;;;2.70;;
54145;SDS011;65909;49.422;7.738;2023-07-24T11:02:55;5.03;;;2.90;;
54145;SDS011;65909;49.422;7.738;2023-07-24T11:05:21;5.78;;;2.97;;
54145;SDS011;65909;49.422;7.738;2023-07-24T11:07:47;7.38;;;3.00;;
54145;SDS011;65909;49.422;7.738;2023-07-24T11:10:18;6.47;;;3.00;;
54145;SDS011;65909;49.422;7.738;2023-07-24T11:12:44;5.10;;;2.42;;
54145;SDS011;65909;49.422;7.738;2023-07-24T11:15:09;5.63;;;2.65;;
54145;SDS011;65909;49.422;7.738;2023-07-24T11:17:35;4.40;;;2.72;;
54145;SDS011;65909;49.422;7.738;2023-07-24T11:20:15;5.07;;;2.70;;
54145;SDS011;65909;49.422;7.738;2023-07-24T11:22:41;4.60;;;2.75;;
54145;SDS011;65909;49.422;7.738;2023-07-24T11:25:07;6.00;;;3.08;;
54145;SDS011;65909;49.422;7.738;2023-07-24T11:27:33;4.95;;;2.83;;
54145;SDS011;65909;49.422;7.738;2023-07-24T11:29:58;6.13;;;2.72;;
54145;SDS011;65909;49.422;7.738;2023-07-24T11:32:23;4.60;;;2.50;;
54145;SDS011;65909;49.422;7.738;2023-07-24T11:34:49;6.60;;;2.63;;
54145;SDS011;65909;49.422;7.738;2023-07-24T11:37:15;3.65;;;2.60;;
54145;SDS011;65909;49.422;7.738;2023-07-24T11:39:40;4.85;;;2.85;;
54145;SDS011;65909;49.422;7.738;2023-07-24T11:42:05;4.60;;;2.50;;
54145;SDS011;65909;49.422;7.738;2023-07-24T11:44:31;5.53;;;2.88;;
54145;SDS011;65909;49.422;7.738;2023-07-24T11:47:03;4.38;;;2.63;;
54145;SDS011;65909;49.422;7.738;2023-07-24T11:49:29;3.63;;;2.53;;
54145;SDS011;65909;49.422;7.738;2023-07-24T11:52:03;6.40;;;2.83;;
54145;SDS011;65909;49.422;7.738;2023-07-24T11:54:29;7.15;;;2.95;;
54145;SDS011;65909;49.422;7.738;2023-07-24T11:56:54;8.63;;;3.27;;
54145;SDS011;65909;49.422;7.738;2023-07-24T11:59:20;7.23;;;3.23;;
54145;SDS011;65909;49.422;7.738;2023-07-24T12:01:45;6.10;;;2.70;;
54145;SDS011;65909;49.422;7.738;2023-07-24T12:04:12;5.05;;;2.35;;
54145;SDS011;65909;49.422;7.738;2023-07-24T12:06:37;4.68;;;3.05;;
54145;SDS011;65909;49.422;7.738;2023-07-24T12:09:03;6.00;;;3.03;;
54145;SDS011;65909;49.422;7.738;2023-07-24T12:11:32;3.97;;;2.53;;
54145;SDS011;65909;49.422;7.738;2023-07-24T12:13:58;5.03;;;3.00;;
54145;SDS011;65909;49.422;7.738;2023-07-24T12:16:23;5.25;;;3.20;;
54145;SDS011;65909;49.422;7.738;2023-07-24T12:18:48;3.60;;;2.50;;
54145;SDS011;65909;49.422;7.738;2023-07-24T12:21:13;4.57;;;2.87;;
54145;SDS011;65909;49.422;7.738;2023-07-24T12:23:39;5.70;;;2.70;;
54145;SDS011;65909;49.422;7.738;2023-07-24T12:26:04;7.07;;;2.55;;
54145;SDS011;65909;49.422;7.738;2023-07-24T12:28:29;7.68;;;2.90;;
54145;SDS011;65909;49.422;7.738;2023-07-24T12:30:54;4.37;;;2.60;;
54145;SDS011;65909;49.422;7.738;2023-07-24T12:33:20;6.20;;;2.70;;
54145;SDS011;65909;49.422;7.738;2023-07-24T12:35:48;3.63;;;2.20;;
54145;SDS011;65909;49.422;7.738;2023-07-24T12:38:13;6.73;;;2.53;;
54145;SDS011;65909;49.422;7.738;2023-07-24T12:40:38;4.20;;;2.40;;
54145;SDS011;65909;49.422;7.738;2023-07-24T12:43:03;4.33;;;2.77;;
54145;SDS011;65909;49.422;7.738;2023-07-24T12:45:29;4.93;;;2.43;;
54145;SDS011;65909;49.422;7.738;2023-07-24T12:47:54;4.27;;;2.27;;
54145;SDS011;65909;49.422;7.738;2023-07-24T12:50:20;4.40;;;2.45;;
54145;SDS011;65909;49.422;7.738;2023-07-24T12:52:45;4.93;;;2.20;;
54145;SDS011;65909;49.422;7.738;2023-07-24T12:55:10;4.43;;;2.72;;
54145;SDS011;65909;49.422;7.738;2023-07-24T12:57:36;4.17;;;2.53;;
54145;SDS011;65909;49.422;7.738;2023-07-24T13:00:01;5.07;;;2.67;;
54145;SDS011;65909;49.422;7.738;2023-07-24T13:02:26;5.20;;;3.10;;
54145;SDS011;65909;49.422;7.738;2023-07-24T13:04:52;5.13;;;2.50;;
54145;SDS011;65909;49.422;7.738;2023-07-24T13:07:17;5.70;;;2.50;;
54145;SDS011;65909;49.422;7.738;2023-07-24T13:09:42;6.07;;;2.70;;
54145;SDS011;65909;49.422;7.738;2023-07-24T13:12:07;6.40;;;2.77;;
54145;SDS011;65909;49.422;7.738;2023-07-24T13:14:33;5.20;;;2.83;;
54145;SDS011;65909;49.422;7.738;2023-07-24T13:16:58;3.10;;;1.93;;
54145;SDS011;65909;49.422;7.738;2023-07-24T13:19:23;3.83;;;2.10;;
54145;SDS011;65909;49.422;7.738;2023-07-24T13:21:48;5.20;;;2.50;;
54145;SDS011;65909;49.422;7.738;2023-07-24T13:24:14;3.70;;;2.17;;
54145;SDS011;65909;49.422;7.738;2023-07-24T13:26:39;3.75;;;2.58;;
54145;SDS011;65909;49.422;7.738;2023-07-24T13:29:05;5.20;;;2.47;;
54145;SDS011;65909;49.422;7.738;2023-07-24T13:31:30;3.90;;;2.30;;
54145;SDS011;65909;49.422;7.738;2023-07-24T13:33:55;3.70;;;2.38;;
54145;SDS011;65909;49.422;7.738;2023-07-24T13:36:21;3.30;;;2.20;;
54145;SDS011;65909;49.422;7.738;2023-07-24T13:38:46;5.30;;;2.33;;
54145;SDS011;65909;49.422;7.738;2023-07-24T13:41:11;6.73;;;2.83;;
54145;SDS011;65909;49.422;7.738;2023-07-24T13:43:36;4.40;;;2.23;;
54145;SDS011;65909;49.422;7.738;2023-07-24T13:46:01;5.13;;;2.73;;
54145;SDS011;65909;49.422;7.738;2023-07-24T13:48:27;4.10;;;2.80;;
54145;SDS011;65909;49.422;7.738;2023-07-24T13:50:53;3.65;;;2.55;;
54145;SDS011;65909;49.422;7.738;2023-07-24T13:53:18;4.37;;;2.57;;
54145;SDS011;65909;49.422;7.738;2023-07-24T13:55:43;4.13;;;2.73;;
54145;SDS011;65909;49.422;7.738;2023-07-24T13:58:08;4.97;;;2.47;;
54145;SDS011;65909;49.422;7.738;2023-07-24T14:00:34;5.68;;;2.95;;
54145;SDS011;65909;49.422;7.738;2023-07-24T14:02:59;6.47;;;2.80;;
54145;SDS011;65909;49.422;7.738;2023-07-24T14:05:24;5.53;;;2.80;;
54145;SDS011;65909;49.422;7.738;2023-07-24T14:07:49;4.97;;;3.00;;
54145;SDS011;65909;49.422;7.738;2023-07-24T14:10:14;4.33;;;2.90;;
54145;SDS011;65909;49.422;7.738;2023-07-24T14:12:40;7.53;;;3.47;;
54145;SDS011;65909;49.422;7.738;2023-07-24T14:15:05;8.47;;;3.90;;
54145;SDS011;65909;49.422;7.738;2023-07-24T14:17:30;7.35;;;3.95;;
54145;SDS011;65909;49.422;7.738;2023-07-24T14:19:55;7.10;;;3.97;;
54145;SDS011;65909;49.422;7.738;2023-07-24T14:22:21;9.53;;;4.93;;
54145;SDS011;65909;49.422;7.738;2023-07-24T14:24:46;7.57;;;4.60;;
54145;SDS011;65909;49.422;7.738;2023-07-24T14:27:12;4.28;;;2.92;;
54145;SDS011;65909;49.422;7.738;2023-07-24T14:29:37;5.13;;;3.00;;
54145;SDS011;65909;49.422;7.738;2023-07-24T14:32:02;6.40;;;3.70;;
54145;SDS011;65909;49.422;7.738;2023-07-24T14:34:27;5.43;;;3.05;;
54145;SDS011;65909;49.422;7.738;2023-07-24T14:36:53;5.40;;;3.13;;
54145;SDS011;65909;49.422;7.738;2023-07-24T14:39:18;4.70;;;3.07;;